Bentonville, Indiana
Current Conditions -  °F | °C
As of 4:53 AM on Sunday 25 Jan 2015 (Local Time) from KGEZ Reporting Station
Clear Clear  
Wind Chill: 30°   Ceiling: Unl
Heat Index: 37°   Visibility: 10mi
Dew Point: 30°   Wind: 9mph
Humidity: 76%   Direction: 170°S
Pressure: 29.69"   Gusts: NA
Location:  39.75°N, 85.19°W
Report Text: KGEZ 250953Z AUTO 17008KT 10SM CLR 03/M01 A2969 RMK AO2 SLP058 T00281011
Loading
Personal Weather Stations






























Interactive Weather Map New forecast layout! Learn more

10-Day Weather Forecast

Advertisements
Track Severe Weather on mobile